sensor_id;sensor_type;location;lat;lon;timestamp;pressure;altitude;pressure_sealevel;temperature;humidity
56414;BME280;42318;48.452;19.526;2022-07-06T00:04:26;98085.91;;;25.00;54.32
56414;BME280;42318;48.452;19.526;2022-07-06T00:11:57;98079.97;;;24.93;54.37
56414;BME280;42318;48.452;19.526;2022-07-06T00:19:28;98085.97;;;24.95;54.33
56414;BME280;42318;48.452;19.526;2022-07-06T00:26:59;98082.41;;;24.94;54.68
56414;BME280;42318;48.452;19.526;2022-07-06T00:34:30;98093.97;;;24.91;54.42
56414;BME280;42318;48.452;19.526;2022-07-06T00:42:00;98105.75;;;24.92;54.36
56414;BME280;42318;48.452;19.526;2022-07-06T00:49:31;98107.16;;;24.89;54.24
56414;BME280;42318;48.452;19.526;2022-07-06T00:57:20;98101.69;;;24.89;54.35
56414;BME280;42318;48.452;19.526;2022-07-06T01:04:51;98090.19;;;24.87;54.55
56414;BME280;42318;48.452;19.526;2022-07-06T01:12:21;98078.22;;;24.83;54.39
56414;BME280;42318;48.452;19.526;2022-07-06T01:19:53;98083.41;;;24.85;54.54
56414;BME280;42318;48.452;19.526;2022-07-06T01:27:23;98089.69;;;24.85;54.50
56414;BME280;42318;48.452;19.526;2022-07-06T01:34:54;98099.31;;;24.83;54.44
56414;BME280;42318;48.452;19.526;2022-07-06T01:42:25;98097.69;;;24.82;54.18
56414;BME280;42318;48.452;19.526;2022-07-06T01:50:01;98116.34;;;24.80;54.10
56414;BME280;42318;48.452;19.526;2022-07-06T01:57:31;98132.28;;;24.78;54.22
56414;BME280;42318;48.452;19.526;2022-07-06T02:05:02;98127.38;;;24.74;53.92
56414;BME280;42318;48.452;19.526;2022-07-06T02:12:33;98136.72;;;24.73;54.21
56414;BME280;42318;48.452;19.526;2022-07-06T02:20:05;98133.69;;;24.75;54.10
56414;BME280;42318;48.452;19.526;2022-07-06T02:27:36;98130.94;;;24.75;53.66
56414;BME280;42318;48.452;19.526;2022-07-06T02:35:06;98141.38;;;24.73;53.76
56414;BME280;42318;48.452;19.526;2022-07-06T02:42:37;98143.00;;;24.74;53.60
56414;BME280;42318;48.452;19.526;2022-07-06T02:50:08;98141.00;;;24.80;53.59
56414;BME280;42318;48.452;19.526;2022-07-06T02:57:39;98139.59;;;24.82;53.17
56414;BME280;42318;48.452;19.526;2022-07-06T03:05:10;98147.53;;;24.84;53.17
56414;BME280;42318;48.452;19.526;2022-07-06T03:12:41;98154.63;;;24.85;52.98
56414;BME280;42318;48.452;19.526;2022-07-06T03:20:11;98163.38;;;24.87;52.94
56414;BME280;42318;48.452;19.526;2022-07-06T03:27:42;98151.38;;;24.83;52.91
56414;BME280;42318;48.452;19.526;2022-07-06T03:35:13;98157.91;;;24.87;52.75
56414;BME280;42318;48.452;19.526;2022-07-06T03:42:44;98170.50;;;24.88;52.74
56414;BME280;42318;48.452;19.526;2022-07-06T03:50:14;98155.75;;;24.84;52.42
56414;BME280;42318;48.452;19.526;2022-07-06T03:57:45;98174.34;;;24.87;52.62
56414;BME280;42318;48.452;19.526;2022-07-06T04:05:16;98167.22;;;24.86;52.56
56414;BME280;42318;48.452;19.526;2022-07-06T04:12:51;98172.72;;;24.86;52.68
56414;BME280;42318;48.452;19.526;2022-07-06T04:20:23;98172.72;;;24.86;52.68
56414;BME280;42318;48.452;19.526;2022-07-06T04:27:54;98161.22;;;24.84;52.63
56414;BME280;42318;48.452;19.526;2022-07-06T04:35:25;98162.63;;;24.81;52.37
56414;BME280;42318;48.452;19.526;2022-07-06T04:42:56;98171.06;;;24.85;52.27
56414;BME280;42318;48.452;19.526;2022-07-06T04:50:26;98164.78;;;24.84;52.03
56414;BME280;42318;48.452;19.526;2022-07-06T04:57:57;98173.00;;;24.84;52.42
56414;BME280;42318;48.452;19.526;2022-07-06T05:05:28;98176.03;;;24.83;52.26
56414;BME280;42318;48.452;19.526;2022-07-06T05:12:59;98183.16;;;24.84;52.35
56414;BME280;42318;48.452;19.526;2022-07-06T05:20:29;98188.09;;;24.82;52.44
56414;BME280;42318;48.452;19.526;2022-07-06T05:28:00;98192.53;;;24.78;52.52
56414;BME280;42318;48.452;19.526;2022-07-06T05:35:31;98215.81;;;24.80;51.99
56414;BME280;42318;48.452;19.526;2022-07-06T05:43:01;98219.34;;;24.81;52.11
56414;BME280;42318;48.452;19.526;2022-07-06T05:50:32;98213.88;;;24.81;51.88
56414;BME280;42318;48.452;19.526;2022-07-06T05:58:03;98214.69;;;24.81;52.09
56414;BME280;42318;48.452;19.526;2022-07-06T06:05:34;98214.69;;;24.81;52.02
56414;BME280;42318;48.452;19.526;2022-07-06T06:13:05;98215.28;;;24.78;51.92
56414;BME280;42318;48.452;19.526;2022-07-06T06:20:35;98229.81;;;24.79;52.05
56414;BME280;42318;48.452;19.526;2022-07-06T06:28:08;98230.91;;;24.78;51.86
56414;BME280;42318;48.452;19.526;2022-07-06T06:35:43;98230.91;;;24.78;51.79
56414;BME280;42318;48.452;19.526;2022-07-06T06:43:14;98238.84;;;24.79;51.77
56414;BME280;42318;48.452;19.526;2022-07-06T06:50:45;98236.91;;;24.80;51.96
56414;BME280;42318;48.452;19.526;2022-07-06T06:58:16;98230.91;;;24.78;51.79
56414;BME280;42318;48.452;19.526;2022-07-06T07:05:47;98244.31;;;24.79;51.72
56414;BME280;42318;48.452;19.526;2022-07-06T07:13:19;98242.69;;;24.78;51.61
56414;BME280;42318;48.452;19.526;2022-07-06T07:20:49;98243.50;;;24.79;51.78
56414;BME280;42318;48.452;19.526;2022-07-06T07:28:20;98243.78;;;24.77;51.66
56414;BME280;42318;48.452;19.526;2022-07-06T07:35:51;98247.34;;;24.78;51.80
56414;BME280;42318;48.452;19.526;2022-07-06T07:43:21;98259.94;;;24.79;51.74
56414;BME280;42318;48.452;19.526;2022-07-06T07:50:52;98266.22;;;24.79;51.87
56414;BME280;42318;48.452;19.526;2022-07-06T07:58:23;98266.22;;;24.79;51.68
56414;BME280;42318;48.452;19.526;2022-07-06T08:05:54;98274.16;;;24.81;51.83
56414;BME280;42318;48.452;19.526;2022-07-06T08:13:25;98272.53;;;24.80;51.26
56414;BME280;42318;48.452;19.526;2022-07-06T08:20:56;98283.19;;;24.81;51.57
56414;BME280;42318;48.452;19.526;2022-07-06T08:28:27;98291.72;;;24.80;51.30
56414;BME280;42318;48.452;19.526;2022-07-06T08:35:58;98291.13;;;24.83;51.45
56414;BME280;42318;48.452;19.526;2022-07-06T08:43:29;98321.28;;;24.83;51.49
56414;BME280;42318;48.452;19.526;2022-07-06T08:51:01;98316.59;;;24.83;51.16
56414;BME280;42318;48.452;19.526;2022-07-06T08:58:31;98320.16;;;24.84;51.30
56414;BME280;42318;48.452;19.526;2022-07-06T09:06:04;98313.56;;;24.85;51.17
56414;BME280;42318;48.452;19.526;2022-07-06T09:13:36;98314.38;;;24.85;51.42
56414;BME280;42318;48.452;19.526;2022-07-06T09:21:07;98310.84;;;24.85;51.63
56414;BME280;42318;48.452;19.526;2022-07-06T09:28:44;98310.53;;;24.86;51.35
56414;BME280;42318;48.452;19.526;2022-07-06T09:36:36;98306.97;;;24.86;51.46
56414;BME280;42318;48.452;19.526;2022-07-06T09:44:09;98305.59;;;24.88;50.98
56414;BME280;42318;48.452;19.526;2022-07-06T09:51:39;98306.69;;;24.87;51.28
56414;BME280;42318;48.452;19.526;2022-07-06T09:59:11;98306.41;;;24.89;51.33
56414;BME280;42318;48.452;19.526;2022-07-06T10:06:42;98299.56;;;24.86;51.25
56414;BME280;42318;48.452;19.526;2022-07-06T10:14:17;98304.47;;;24.89;51.48
56414;BME280;42318;48.452;19.526;2022-07-06T10:21:48;98306.91;;;24.91;51.18
56414;BME280;42318;48.452;19.526;2022-07-06T10:29:19;98305.88;;;24.87;50.94
56414;BME280;42318;48.452;19.526;2022-07-06T10:36:51;98315.66;;;24.93;50.87
56414;BME280;42318;48.452;19.526;2022-07-06T10:44:25;98320.34;;;24.92;51.04
56414;BME280;42318;48.452;19.526;2022-07-06T10:51:56;98301.97;;;24.93;51.17
56414;BME280;42318;48.452;19.526;2022-07-06T10:59:29;98320.84;;;24.94;51.28
56414;BME280;42318;48.452;19.526;2022-07-06T11:07:17;98328.25;;;24.94;51.29
56414;BME280;42318;48.452;19.526;2022-07-06T11:14:49;98329.06;;;24.94;50.93
56414;BME280;42318;48.452;19.526;2022-07-06T11:22:21;98330.72;;;24.95;51.22
56414;BME280;42318;48.452;19.526;2022-07-06T11:29:54;98337.81;;;24.96;51.28
56414;BME280;42318;48.452;19.526;2022-07-06T11:37:25;98349.59;;;24.97;51.15
56414;BME280;42318;48.452;19.526;2022-07-06T11:44:56;98355.63;;;24.99;50.99
56414;BME280;42318;48.452;19.526;2022-07-06T11:52:26;98359.19;;;24.99;50.92
56414;BME280;42318;48.452;19.526;2022-07-06T11:59:57;98351.25;;;24.98;50.91
56414;BME280;42318;48.452;19.526;2022-07-06T12:07:28;98347.41;;;24.99;50.69
56414;BME280;42318;48.452;19.526;2022-07-06T12:14:59;98339.72;;;25.01;51.06
56414;BME280;42318;48.452;19.526;2022-07-06T12:22:31;98331.19;;;25.02;51.05
56414;BME280;42318;48.452;19.526;2022-07-06T12:30:09;98316.16;;;25.00;50.99
56414;BME280;42318;48.452;19.526;2022-07-06T12:37:54;98327.34;;;25.03;50.99
56414;BME280;42318;48.452;19.526;2022-07-06T12:45:27;98333.66;;;25.04;50.99
56414;BME280;42318;48.452;19.526;2022-07-06T12:52:58;98355.56;;;25.04;50.84
56414;BME280;42318;48.452;19.526;2022-07-06T13:00:44;98346.25;;;25.05;50.74
56414;BME280;42318;48.452;19.526;2022-07-06T13:08:16;98336.91;;;25.06;51.14
56414;BME280;42318;48.452;19.526;2022-07-06T13:15:47;98345.94;;;25.07;50.45
56414;BME280;42318;48.452;19.526;2022-07-06T13:23:17;98334.75;;;25.03;50.85
56414;BME280;42318;48.452;19.526;2022-07-06T13:30:48;98341.28;;;25.07;50.87
56414;BME280;42318;48.452;19.526;2022-07-06T13:38:19;98346.75;;;25.07;50.70
56414;BME280;42318;48.452;19.526;2022-07-06T13:45:49;98342.09;;;25.08;50.77
56414;BME280;42318;48.452;19.526;2022-07-06T13:53:20;98342.09;;;25.08;50.64
56414;BME280;42318;48.452;19.526;2022-07-06T14:00:51;98339.88;;;25.10;50.69
56414;BME280;42318;48.452;19.526;2022-07-06T14:08:22;98341.50;;;25.11;50.66
56414;BME280;42318;48.452;19.526;2022-07-06T14:15:53;98337.97;;;25.10;50.58
56414;BME280;42318;48.452;19.526;2022-07-06T14:23:24;98328.63;;;25.11;50.86
56414;BME280;42318;48.452;19.526;2022-07-06T14:30:55;98335.75;;;25.12;50.75
56414;BME280;42318;48.452;19.526;2022-07-06T14:38:26;98349.97;;;25.14;50.56
56414;BME280;42318;48.452;19.526;2022-07-06T14:45:58;98336.25;;;25.14;50.69
56414;BME280;42318;48.452;19.526;2022-07-06T14:53:30;98337.38;;;25.13;50.47
56414;BME280;42318;48.452;19.526;2022-07-06T15:01:01;98339.56;;;25.16;50.68
56414;BME280;42318;48.452;19.526;2022-07-06T15:08:39;98328.59;;;25.16;50.58
56414;BME280;42318;48.452;19.526;2022-07-06T15:16:10;98328.03;;;25.14;50.49
56414;BME280;42318;48.452;19.526;2022-07-06T15:23:41;98334.88;;;25.17;50.19
56414;BME280;42318;48.452;19.526;2022-07-06T15:31:12;98342.00;;;25.18;50.34
56414;BME280;42318;48.452;19.526;2022-07-06T15:38:43;98332.97;;;25.17;50.19
56414;BME280;42318;48.452;19.526;2022-07-06T15:46:13;98345.56;;;25.18;50.31
56414;BME280;42318;48.452;19.526;2022-07-06T15:53:44;98345.56;;;25.18;50.33
56414;BME280;42318;48.452;19.526;2022-07-06T16:01:15;98335.41;;;25.19;50.18
56414;BME280;42318;48.452;19.526;2022-07-06T16:08:46;98333.47;;;25.19;50.14
56414;BME280;42318;48.452;19.526;2022-07-06T16:16:17;98347.19;;;25.19;50.39
56414;BME280;42318;48.452;19.526;2022-07-06T16:23:49;98352.69;;;25.19;49.99
56414;BME280;42318;48.452;19.526;2022-07-06T16:31:20;98347.19;;;25.19;50.42
56414;BME280;42318;48.452;19.526;2022-07-06T16:38:51;98358.69;;;25.21;50.24
56414;BME280;42318;48.452;19.526;2022-07-06T16:46:21;98353.19;;;25.21;50.57
56414;BME280;42318;48.452;19.526;2022-07-06T16:53:52;98362.53;;;25.20;50.42
56414;BME280;42318;48.452;19.526;2022-07-06T17:01:23;98359.78;;;25.20;50.21
56414;BME280;42318;48.452;19.526;2022-07-06T17:08:54;98360.59;;;25.21;49.89
56414;BME280;42318;48.452;19.526;2022-07-06T17:16:25;98359.50;;;25.22;50.16
56414;BME280;42318;48.452;19.526;2022-07-06T17:23:56;98361.44;;;25.21;50.35
56414;BME280;42318;48.452;19.526;2022-07-06T17:31:27;98373.22;;;25.22;50.78
56414;BME280;42318;48.452;19.526;2022-07-06T17:38:57;98371.56;;;25.21;50.33
56414;BME280;42318;48.452;19.526;2022-07-06T17:46:29;98381.44;;;25.22;50.77
56414;BME280;42318;48.452;19.526;2022-07-06T17:54:00;98377.88;;;25.21;50.24
56414;BME280;42318;48.452;19.526;2022-07-06T18:01:31;98392.69;;;25.20;50.24
56414;BME280;42318;48.452;19.526;2022-07-06T18:09:02;98392.25;;;25.08;47.12
56414;BME280;42318;48.452;19.526;2022-07-06T18:16:34;98395.94;;;24.98;47.06
56414;BME280;42318;48.452;19.526;2022-07-06T18:24:05;98417.88;;;24.98;46.30
56414;BME280;42318;48.452;19.526;2022-07-06T18:31:37;98413.84;;;24.86;43.79
56414;BME280;42318;48.452;19.526;2022-07-06T18:39:07;98420.22;;;24.81;43.36
56414;BME280;42318;48.452;19.526;2022-07-06T18:46:38;98424.94;;;24.70;43.71
56414;BME280;42318;48.452;19.526;2022-07-06T18:54:09;98446.34;;;24.68;43.47
56414;BME280;42318;48.452;19.526;2022-07-06T19:01:41;98447.41;;;24.72;44.36
56414;BME280;42318;48.452;19.526;2022-07-06T19:09:12;98453.31;;;24.85;43.45
56414;BME280;42318;48.452;19.526;2022-07-06T19:16:42;98454.91;;;24.91;43.64
56414;BME280;42318;48.452;19.526;2022-07-06T19:24:13;98471.31;;;24.96;43.45
56414;BME280;42318;48.452;19.526;2022-07-06T19:31:44;98474.31;;;24.99;43.15
56414;BME280;42318;48.452;19.526;2022-07-06T19:39:15;98483.09;;;24.96;43.23
56414;BME280;42318;48.452;19.526;2022-07-06T19:46:46;98483.66;;;24.93;43.26
56414;BME280;42318;48.452;19.526;2022-07-06T19:54:17;98495.25;;;24.85;42.64
56414;BME280;42318;48.452;19.526;2022-07-06T20:01:47;98502.63;;;24.90;42.41
56414;BME280;42318;48.452;19.526;2022-07-06T20:09:18;98490.25;;;24.92;42.34
56414;BME280;42318;48.452;19.526;2022-07-06T20:16:50;98486.16;;;24.90;42.32
56414;BME280;42318;48.452;19.526;2022-07-06T20:24:22;98476.94;;;24.81;41.73
56414;BME280;42318;48.452;19.526;2022-07-06T20:31:53;98479.72;;;24.70;40.67
56414;BME280;42318;48.452;19.526;2022-07-06T20:39:24;98497.84;;;24.66;40.64
56414;BME280;42318;48.452;19.526;2022-07-06T20:46:55;98520.91;;;24.60;38.74
56414;BME280;42318;48.452;19.526;2022-07-06T20:54:25;98544.94;;;24.24;38.87
56414;BME280;42318;48.452;19.526;2022-07-06T21:01:56;98561.91;;;24.31;40.74
56414;BME280;42318;48.452;19.526;2022-07-06T21:09:27;98565.91;;;24.49;41.33
56414;BME280;42318;48.452;19.526;2022-07-06T21:16:57;98566.16;;;24.53;41.38
56414;BME280;42318;48.452;19.526;2022-07-06T21:24:28;98576.50;;;24.66;41.31
56414;BME280;42318;48.452;19.526;2022-07-06T21:31:59;98573.47;;;24.67;42.14
56414;BME280;42318;48.452;19.526;2022-07-06T21:39:31;98578.13;;;24.72;41.65
56414;BME280;42318;48.452;19.526;2022-07-06T21:47:02;98595.66;;;24.66;40.64
56414;BME280;42318;48.452;19.526;2022-07-06T21:54:33;98589.94;;;24.62;40.99
56414;BME280;42318;48.452;19.526;2022-07-06T22:02:04;98586.59;;;24.70;41.54
56414;BME280;42318;48.452;19.526;2022-07-06T22:09:36;98594.00;;;24.70;41.83
56414;BME280;42318;48.452;19.526;2022-07-06T22:17:07;98593.22;;;24.64;41.62
56414;BME280;42318;48.452;19.526;2022-07-06T22:24:38;98596.47;;;24.66;41.64
56414;BME280;42318;48.452;19.526;2022-07-06T22:32:08;98587.69;;;24.69;41.27
56414;BME280;42318;48.452;19.526;2022-07-06T22:39:39;98586.06;;;24.68;41.24
56414;BME280;42318;48.452;19.526;2022-07-06T22:47:10;98598.94;;;24.68;41.13
56414;BME280;42318;48.452;19.526;2022-07-06T22:54:41;98597.31;;;24.67;41.09
56414;BME280;42318;48.452;19.526;2022-07-06T23:02:11;98596.22;;;24.63;40.69
56414;BME280;42318;48.452;19.526;2022-07-06T23:09:42;98611.56;;;24.64;40.71
56414;BME280;42318;48.452;19.526;2022-07-06T23:17:13;98603.72;;;24.47;40.25
56414;BME280;42318;48.452;19.526;2022-07-06T23:24:43;98614.16;;;24.45;40.56
56414;BME280;42318;48.452;19.526;2022-07-06T23:32:14;98608.97;;;24.38;40.83
56414;BME280;42318;48.452;19.526;2022-07-06T23:39:46;98622.69;;;24.33;41.34
56414;BME280;42318;48.452;19.526;2022-07-06T23:47:18;98608.75;;;24.30;41.67
56414;BME280;42318;48.452;19.526;2022-07-06T23:54:49;98607.91;;;24.24;41.18
